This is the latest recevied weather packets stored in our database for station/object KB4NWJ. If no packets are shown the sender has not sent any weather packets the latest 10 day(s).
| Time | Temp. | Humidity | Pressure | Rain* | Wind** | Luminosity | Snow |
|---|---|---|---|---|---|---|---|
| 1777918947 | 24.44° C | 45% | 1017.2 hPa | 0 mm | - | 738 W/m² | - |
| 1777918645 | 24.44° C | 44% | 1017.2 hPa | 0 mm | - | 749 W/m² | - |
| 1777918342 | 24.44° C | 41% | 1017.2 hPa | 0 mm | - | 683 W/m² | - |
| 1777918041 | 24.44° C | 45% | 1017.5 hPa | 0 mm | - | 726 W/m² | - |
| 1777917739 | 24.44° C | 44% | 1017.6 hPa | 0 mm | - | 698 W/m² | - |
| 1777917436 | 24.44° C | 44% | 1017.4 hPa | 0 mm | - | 684 W/m² | - |
| 1777917133 | 23.89° C | 45% | 1017.7 hPa | 0 mm | - | 626 W/m² | - |
| 1777916831 | 25° C | 44% | 1017.8 hPa | 0 mm | - | 615 W/m² | - |
| 1777916529 | 23.89° C | 42% | 1017.6 hPa | 0 mm | - | 603 W/m² | - |
| 1777916224 | 23.89° C | 44% | 1017.7 hPa | 0 mm | - | 665 W/m² | - |
| 1777915922 | 23.89° C | 46% | 1017.6 hPa | 0 mm | - | 724 W/m² | - |
| 1777915618 | 23.89° C | 43% | 1018.1 hPa | 0 mm | - | 672 W/m² | - |
| 1777915315 | 24.44° C | 41% | 1018.1 hPa | 0 mm | - | 657 W/m² | - |
| 1777915011 | 23.89° C | 45% | 1017.9 hPa | 0 mm | - | 690 W/m² | - |
| 1777914708 | 24.44° C | 44% | 1018.3 hPa | 0 mm | - | 726 W/m² | - |
| 1777914405 | 23.89° C | 47% | 1018.1 hPa | 0 mm | - | 686 W/m² | - |
| 1777914102 | 23.33° C | 47% | 1018.1 hPa | 0 mm | - | 681 W/m² | - |
| 1777913798 | 23.89° C | 44% | 1018.2 hPa | 0 mm | - | 686 W/m² | - |
| 1777913495 | 23.89° C | 44% | 1018.4 hPa | 0 mm | - | 645 W/m² | - |
| 1777913192 | 23.89° C | 45% | 1018.4 hPa | 0 mm | - | 567 W/m² | - |
| 1777912887 | 23.33° C | 46% | 1018.5 hPa | 0 mm | - | 580 W/m² | - |
| 1777912584 | 22.78° C | 45% | 1018.7 hPa | 0 mm | - | 723 W/m² | - |
| 1777912275 | 22.22° C | 48% | 1018.5 hPa | 0 mm | - | 737 W/m² | - |
| 1777911971 | 23.33° C | 45% | 1018.6 hPa | 0 mm | - | 666 W/m² | - |
| 1777911668 | 22.22° C | 49% | 1018.9 hPa | 0 mm | - | 669 W/m² | - |
* Rain latest hour (hover to see other rain measurements)
** Current wind speed in m/s (hover to see current wind gust speed)